Time;durP1;ratioP1;P1;durP2;ratioP2;P2;SDS_P1;SDS_P2;PMS_P1;PMS_P2;Temp;Humidity;BMP_temperature;BMP_pressure;BME280_temperature;BME280_humidity;BME280_pressure;Samples;Min_cycle;Max_cycle;Signal;HPM_P1;HPM_P2
2023/09/15 00:01:12;;;;;;;;;;;;;;;-140.72;100.00;52689.16;5077640;28;19974;-71
2023/09/15 00:03:38;;;;;;;;;;;;;;;-140.72;100.00;52670.88;5071143;28;21321;-71
2023/09/15 00:06:04;;;;;;;;;;;;;;;-140.72;100.00;52687.13;5080961;28;20286;-71
2023/09/15 00:08:29;;;;;;;;;;;;;;;-140.72;100.00;52642.47;5083899;28;20326;-71
2023/09/15 00:10:54;;;;;;;;;;;;;;;-140.72;100.00;52650.59;5068451;28;19924;-71
2023/09/15 00:13:19;;;;;;;;;;;;;;;-140.72;100.00;52687.13;5067190;28;20520;-71
2023/09/15 00:15:49;;;;;;;;;;;;;;;-140.72;100.00;52703.34;5070254;28;19925;-71
2023/09/15 00:18:15;;;;;;;;;;;;;;;-140.72;100.00;52681.03;5062688;28;19921;-71
2023/09/15 00:20:40;;;;;;;;;;;;;;;-140.72;100.00;52660.75;5065896;28;20294;-71
2023/09/15 00:23:05;;;;;;;;;;;;;;;-140.72;100.00;52703.34;5068329;28;19969;-71
2023/09/15 00:25:32;;;;;;;;;;;;;;;-140.72;100.00;52674.94;5071262;28;19920;-71
2023/09/15 00:27:58;;;;;;;;;;;;;;;-140.72;100.00;52664.81;5073209;28;19972;-71
2023/09/15 00:30:24;;;;;;;;;;;;;;;-140.72;100.00;52670.88;5070575;28;19943;-71
2023/09/15 00:32:50;;;;;;;;;;;;;;;-140.72;100.00;52699.31;5062661;28;19925;-71
2023/09/15 00:35:17;;;;;;;;;;;;;;;-140.72;100.00;52679.00;5068611;28;19944;-71
2023/09/15 00:37:43;;;;;;;;;;;;;;;-140.72;100.00;52709.44;5071614;28;20352;-71
2023/09/15 00:40:10;;;;;;;;;;;;;;;-140.72;100.00;52715.53;5071300;28;19920;-71
2023/09/15 00:42:36;;;;;;;;;;;;;;;-140.72;100.00;52727.72;5072371;28;19921;-71
2023/09/15 00:45:04;;;;;;;;;;;;;;;-140.72;100.00;52693.22;5069954;28;19929;-71
2023/09/15 00:47:36;;;;;;;;;;;;;;;-140.72;100.00;52681.03;5065348;28;19929;-71
2023/09/15 00:50:05;;;;;;;;;;;;;;;-140.72;100.00;52717.56;5080649;28;20302;-71
2023/09/15 00:52:33;;;;;;;;;;;;;;;-140.72;100.00;52681.03;5074159;28;20041;-71
2023/09/15 00:54:59;;;;;;;;;;;;;;;-140.72;100.00;52691.19;5077438;28;19927;-72
2023/09/15 00:57:25;;;;;;;;;;;;;;;-140.72;100.00;52693.22;5073820;28;19920;-71
2023/09/15 00:59:50;;;;;;;;;;;;;;;-140.72;100.00;52735.81;5072479;28;19978;-71
2023/09/15 01:02:23;;;;;;;;;;;;;;;-140.72;100.00;52703.34;5068096;28;19924;-71
2023/09/15 01:04:48;;;;;;;;;;;;;;;-140.72;100.00;52717.56;5066489;28;20454;-71
2023/09/15 01:07:36;;;;;;;;;;;;;;;-140.72;100.00;52739.88;5066732;28;20014;-71
2023/09/15 01:10:02;;;;;;;;;;;;;;;-140.72;100.00;52697.28;5075601;28;19943;-71
2023/09/15 01:12:27;;;;;;;;;;;;;;;-140.72;100.00;52723.66;5068284;28;19920;-71
2023/09/15 01:14:53;;;;;;;;;;;;;;;-140.72;100.00;52727.72;5070316;28;19920;-71
2023/09/15 01:17:21;;;;;;;;;;;;;;;-140.72;100.00;52727.72;5079176;28;20386;-71
2023/09/15 01:19:54;;;;;;;;;;;;;;;-140.72;100.00;52737.84;5078649;28;19927;-71
2023/09/15 01:22:20;;;;;;;;;;;;;;;-140.72;100.00;52705.38;5073971;28;19924;-71
2023/09/15 01:25:04;;;;;;;;;;;;;;;-140.72;100.00;52743.94;5084403;28;19928;-71
2023/09/15 01:27:30;;;;;;;;;;;;;;;-140.72;100.00;52737.84;5078879;28;19924;-71
2023/09/15 01:29:56;;;;;;;;;;;;;;;-140.72;100.00;52735.81;5083515;28;20301;-71
2023/09/15 01:32:22;;;;;;;;;;;;;;;-140.72;100.00;52689.16;5082150;28;19920;-71
2023/09/15 01:34:48;;;;;;;;;;;;;;;-140.72;100.00;52695.25;5084970;28;20340;-71
2023/09/15 01:37:14;;;;;;;;;;;;;;;-140.72;100.00;52713.50;5075487;28;19928;-71
2023/09/15 01:39:39;;;;;;;;;;;;;;;-140.72;100.00;52715.53;5065056;28;19973;-71
2023/09/15 01:42:04;;;;;;;;;;;;;;;-140.72;100.00;52721.63;5068248;28;19927;-70
2023/09/15 01:44:30;;;;;;;;;;;;;;;-140.72;100.00;52713.50;5079526;28;19966;-71
2023/09/15 01:46:56;;;;;;;;;;;;;;;-140.72;100.00;52723.66;5076245;28;19928;-71
2023/09/15 01:49:21;;;;;;;;;;;;;;;-140.72;100.00;52743.94;5077467;28;19964;-71
2023/09/15 01:51:47;;;;;;;;;;;;;;;-140.72;100.00;52703.34;5085913;28;19928;-70
2023/09/15 01:54:13;;;;;;;;;;;;;;;-140.72;100.00;52713.50;5089652;28;20379;-70
2023/09/15 01:56:39;;;;;;;;;;;;;;;-140.72;100.00;52741.91;5081611;28;20011;-70
2023/09/15 01:59:04;;;;;;;;;;;;;;;-140.72;100.00;52727.72;5078038;28;19960;-71
2023/09/15 02:01:30;;;;;;;;;;;;;;;-140.72;100.00;52745.97;5072629;28;20329;-71
2023/09/15 02:03:55;;;;;;;;;;;;;;;-140.72;100.00;52717.56;5084609;28;19916;-70
2023/09/15 02:06:20;;;;;;;;;;;;;;;-140.72;100.00;52748.00;5067785;28;19966;-70
2023/09/15 02:08:45;;;;;;;;;;;;;;;-140.72;100.00;52756.13;5074486;28;19942;-70
2023/09/15 02:11:11;;;;;;;;;;;;;;;-140.72;100.00;52739.88;5078213;28;19924;-70
2023/09/15 02:13:37;;;;;;;;;;;;;;;-140.72;100.00;52691.19;5073962;28;19917;-70
2023/09/15 02:16:03;;;;;;;;;;;;;;;-140.72;100.00;52729.75;5060392;28;19924;-70
2023/09/15 02:18:28;;;;;;;;;;;;;;;-140.72;100.00;52748.00;5079296;28;19920;-70
2023/09/15 02:20:54;;;;;;;;;;;;;;;-140.72;100.00;52735.81;5078895;28;20294;-70
2023/09/15 02:23:20;;;;;;;;;;;;;;;-140.72;100.00;52764.25;5087329;28;19931;-70
2023/09/15 02:25:45;;;;;;;;;;;;;;;-140.72;100.00;52697.28;5070309;28;20282;-70
2023/09/15 02:31:11;;;;;;;;;;;;;;;-140.72;100.00;52764.25;5068645;28;19956;-70
2023/09/15 02:33:36;;;;;;;;;;;;;;;-140.72;100.00;52719.59;5064503;28;19987;-70
2023/09/15 02:36:03;;;;;;;;;;;;;;;-140.72;100.00;52725.69;5072704;28;20459;-72
2023/09/15 02:38:28;;;;;;;;;;;;;;;-140.72;100.00;52715.53;5075097;28;19942;-71
2023/09/15 02:43:57;;;;;;;;;;;;;;;-140.72;100.00;52723.66;5067829;28;20392;-69
2023/09/15 02:46:23;;;;;;;;;;;;;;;-140.72;100.00;52772.34;5066256;28;19920;-69
2023/09/15 02:48:48;;;;;;;;;;;;;;;-140.72;100.00;52745.97;5069388;28;20405;-70
2023/09/15 02:51:14;;;;;;;;;;;;;;;-140.72;100.00;52717.56;5072264;28;19921;-70
2023/09/15 02:53:40;;;;;;;;;;;;;;;-140.72;100.00;52727.72;5072452;28;19928;-70
2023/09/15 02:56:05;;;;;;;;;;;;;;;-140.72;100.00;52778.44;5085402;28;19920;-70
2023/09/15 02:58:31;;;;;;;;;;;;;;;-140.72;100.00;52739.88;5083626;28;20386;-70
2023/09/15 03:00:56;;;;;;;;;;;;;;;-140.72;100.00;52735.81;5084660;28;20371;-69
2023/09/15 03:03:23;;;;;;;;;;;;;;;-140.72;100.00;52804.81;5074192;28;20062;-69
2023/09/15 03:05:48;;;;;;;;;;;;;;;-140.72;100.00;52780.47;5079281;28;19924;-70
2023/09/15 03:08:14;;;;;;;;;;;;;;;-140.72;100.00;52752.06;5072427;28;20070;-69
2023/09/15 03:10:39;;;;;;;;;;;;;;;-140.72;100.00;52723.66;5078495;28;19924;-70
2023/09/15 03:13:05;;;;;;;;;;;;;;;-140.72;100.00;52748.00;5080641;28;19963;-70
2023/09/15 03:15:32;;;;;;;;;;;;;;;-140.72;100.00;52723.66;5069207;28;20011;-70
2023/09/15 03:17:57;;;;;;;;;;;;;;;-140.72;100.00;52760.19;5073837;28;19940;-70
2023/09/15 03:20:22;;;;;;;;;;;;;;;-140.72;100.00;52760.19;5072448;28;19927;-70
2023/09/15 03:22:50;;;;;;;;;;;;;;;-140.72;100.00;52739.88;5067281;28;19939;-70
2023/09/15 03:25:16;;;;;;;;;;;;;;;-140.72;100.00;52760.19;5072224;28;19921;-70
2023/09/15 03:27:41;;;;;;;;;;;;;;;-140.72;100.00;52737.84;5074938;28;19989;-70
2023/09/15 03:30:06;;;;;;;;;;;;;;;-140.72;100.00;52752.06;5085580;28;19920;-70
2023/09/15 03:32:32;;;;;;;;;;;;;;;-140.72;100.00;52693.22;5070063;28;20676;-70
2023/09/15 03:34:57;;;;;;;;;;;;;;;-140.72;100.00;52768.28;5079616;28;19920;-70
2023/09/15 03:37:23;;;;;;;;;;;;;;;-140.72;100.00;52741.91;5080114;28;20397;-70
2023/09/15 03:39:49;;;;;;;;;;;;;;;-140.72;100.00;52725.69;5071266;28;19946;-70
2023/09/15 03:42:15;;;;;;;;;;;;;;;-140.72;100.00;52766.25;5075835;28;19947;-70
2023/09/15 03:44:40;;;;;;;;;;;;;;;-140.72;100.00;52723.66;5071810;28;20406;-70
2023/09/15 03:47:05;;;;;;;;;;;;;;;-140.72;100.00;52780.47;5077877;28;20378;-70
2023/09/15 03:49:30;;;;;;;;;;;;;;;-140.72;100.00;52776.41;5073603;28;20367;-70
2023/09/15 03:51:56;;;;;;;;;;;;;;;-140.72;100.00;52784.53;5085697;28;19927;-70
2023/09/15 03:54:23;;;;;;;;;;;;;;;-140.72;100.00;52766.25;5074590;28;20362;-70
2023/09/15 03:56:48;;;;;;;;;;;;;;;-140.72;100.00;52729.75;5081648;28;20078;-70
2023/09/15 03:59:13;;;;;;;;;;;;;;;-140.72;100.00;52770.31;5079794;28;20020;-70
2023/09/15 04:01:39;;;;;;;;;;;;;;;-140.72;100.00;52782.50;5074870;28;19990;-70
2023/09/15 04:04:04;;;;;;;;;;;;;;;-140.72;100.00;52764.25;5070165;28;20008;-70
2023/09/15 04:06:30;;;;;;;;;;;;;;;-140.72;100.00;52760.19;5071941;28;19925;-69
2023/09/15 04:08:55;;;;;;;;;;;;;;;-140.72;100.00;52788.59;5068619;28;19920;-70
2023/09/15 04:11:20;;;;;;;;;;;;;;;-140.72;100.00;52725.69;5065299;28;19932;-70
2023/09/15 04:13:46;;;;;;;;;;;;;;;-140.72;100.00;52758.16;5079139;28;20003;-69
2023/09/15 04:16:11;;;;;;;;;;;;;;;-140.72;100.00;52735.81;5073747;28;19920;-69
2023/09/15 04:18:36;;;;;;;;;;;;;;;-140.72;100.00;52731.75;5068341;28;19920;-70
2023/09/15 04:21:02;;;;;;;;;;;;;;;-140.72;100.00;52768.28;5062802;28;19920;-71
2023/09/15 04:23:27;;;;;;;;;;;;;;;-140.72;100.00;52739.88;5070174;28;19932;-72
2023/09/15 04:25:53;;;;;;;;;;;;;;;-140.72;100.00;52743.94;5059051;28;19924;-70
2023/09/15 04:28:18;;;;;;;;;;;;;;;-140.72;100.00;52737.84;5081155;28;20387;-72
2023/09/15 04:30:43;;;;;;;;;;;;;;;-140.72;100.00;52758.16;5071275;28;19921;-72
2023/09/15 04:33:08;;;;;;;;;;;;;;;-140.72;100.00;52750.03;5070729;28;20069;-71
2023/09/15 04:35:34;;;;;;;;;;;;;;;-140.72;100.00;52766.25;5057874;28;20069;-71
2023/09/15 04:37:59;;;;;;;;;;;;;;;-140.72;100.00;52776.41;5062990;28;19988;-71
2023/09/15 04:40:24;;;;;;;;;;;;;;;-140.72;100.00;52754.09;5069740;28;19917;-71
2023/09/15 04:42:50;;;;;;;;;;;;;;;-140.72;100.00;52756.13;5070352;28;19931;-71
2023/09/15 04:45:15;;;;;;;;;;;;;;;-140.72;100.00;52745.97;5063746;28;20003;-72
2023/09/15 04:47:40;;;;;;;;;;;;;;;-140.72;100.00;52733.78;5075374;28;19947;-71
2023/09/15 04:50:07;;;;;;;;;;;;;;;-140.72;100.00;52743.94;5068606;28;19921;-71
2023/09/15 04:52:32;;;;;;;;;;;;;;;-140.72;100.00;52756.13;5066518;28;20339;-72
2023/09/15 04:54:57;;;;;;;;;;;;;;;-140.72;100.00;52762.22;5065905;28;20007;-73
2023/09/15 04:57:23;;;;;;;;;;;;;;;-140.72;100.00;52788.59;5065615;28;20015;-73
2023/09/15 04:59:48;;;;;;;;;;;;;;;-140.72;100.00;52766.25;5068759;28;19925;-74
2023/09/15 05:02:14;;;;;;;;;;;;;;;-140.72;100.00;52760.19;5092995;28;19916;-74
2023/09/15 05:04:39;;;;;;;;;;;;;;;-140.72;100.00;52739.88;5062286;28;19928;-74
2023/09/15 05:07:06;;;;;;;;;;;;;;;-140.72;100.00;52707.41;5079256;28;19916;-74
2023/09/15 05:09:31;;;;;;;;;;;;;;;-140.72;100.00;52760.19;5060855;28;19921;-74
2023/09/15 05:11:56;;;;;;;;;;;;;;;-140.72;100.00;52743.94;5072331;28;19920;-72
2023/09/15 05:14:22;;;;;;;;;;;;;;;-140.72;100.00;52748.00;5071165;28;20329;-73
2023/09/15 05:16:48;;;;;;;;;;;;;;;-140.72;100.00;52776.41;5068111;28;19968;-74
2023/09/15 05:19:13;;;;;;;;;;;;;;;-140.72;100.00;52766.25;5077208;28;19935;-77
2023/09/15 05:21:38;;;;;;;;;;;;;;;-140.72;100.00;52741.91;5063563;28;20259;-73
2023/09/15 05:24:09;;;;;;;;;;;;;;;-140.72;100.00;52741.91;5069665;28;20357;-73
2023/09/15 05:26:34;;;;;;;;;;;;;;;-140.72;100.00;52762.22;5077753;28;19916;-74
2023/09/15 05:29:17;;;;;;;;;;;;;;;-140.72;100.00;52796.72;5058077;28;19928;-72
2023/09/15 05:31:42;;;;;;;;;;;;;;;-140.72;100.00;52774.38;5067852;28;20462;-74
2023/09/15 05:34:09;;;;;;;;;;;;;;;-140.72;100.00;52776.41;5065105;28;19971;-74
2023/09/15 05:36:34;;;;;;;;;;;;;;;-140.72;100.00;52758.16;5053434;28;20375;-73
2023/09/15 05:38:59;;;;;;;;;;;;;;;-140.72;100.00;52782.50;5064739;28;19924;-74
2023/09/15 05:41:25;;;;;;;;;;;;;;;-140.72;100.00;52741.91;5069359;28;20326;-74
2023/09/15 05:43:50;;;;;;;;;;;;;;;-140.72;100.00;52821.06;5065805;28;19920;-74
2023/09/15 05:46:15;;;;;;;;;;;;;;;-140.72;100.00;52796.72;5068392;28;20018;-74
2023/09/15 05:48:40;;;;;;;;;;;;;;;-140.72;100.00;52707.41;5067517;28;20003;-75
2023/09/15 05:51:07;;;;;;;;;;;;;;;-140.72;100.00;52727.72;5076875;28;19920;-74
2023/09/15 05:53:32;;;;;;;;;;;;;;;-140.72;100.00;52772.34;5078889;28;19924;-74
2023/09/15 05:55:57;;;;;;;;;;;;;;;-140.72;100.00;52780.47;5069694;28;20394;-73
2023/09/15 05:58:23;;;;;;;;;;;;;;;-140.72;100.00;52768.28;5071196;28;19942;-74
2023/09/15 06:00:50;;;;;;;;;;;;;;;-140.72;100.00;52760.19;5075430;28;19991;-75
2023/09/15 06:03:15;;;;;;;;;;;;;;;-140.72;100.00;52752.06;5070241;28;19922;-74
2023/09/15 06:05:41;;;;;;;;;;;;;;;-140.72;100.00;52772.34;5071496;28;20015;-74
2023/09/15 06:08:08;;;;;;;;;;;;;;;-140.72;100.00;52768.28;5072865;28;19985;-74
2023/09/15 06:10:34;;;;;;;;;;;;;;;-140.72;100.00;52756.13;5067560;28;21176;-70
2023/09/15 06:13:00;;;;;;;;;;;;;;;-140.72;100.00;52776.41;5068250;28;20035;-70
2023/09/15 06:15:25;;;;;;;;;;;;;;;-140.72;100.00;52766.25;5085159;28;19970;-70
2023/09/15 06:18:18;;;;;;;;;;;;;;;-140.72;100.00;52768.28;5075850;28;19916;-74
2023/09/15 06:20:43;;;;;;;;;;;;;;;-140.72;100.00;52766.25;5072033;28;19925;-69
2023/09/15 06:23:09;;;;;;;;;;;;;;;-140.72;100.00;52760.19;5063730;28;19958;-70
2023/09/15 06:25:34;;;;;;;;;;;;;;;-140.72;100.00;52745.97;5079900;28;19920;-70
2023/09/15 06:28:02;;;;;;;;;;;;;;;-140.72;100.00;52758.16;5073635;28;19927;-72
2023/09/15 06:30:29;;;;;;;;;;;;;;;-140.72;100.00;52772.34;5072509;28;19920;-70
2023/09/15 06:32:55;;;;;;;;;;;;;;;-140.72;100.00;52713.50;5076397;28;20317;-70
2023/09/15 06:35:21;;;;;;;;;;;;;;;-140.72;100.00;52731.75;5074823;28;19916;-71
2023/09/15 06:37:47;;;;;;;;;;;;;;;-140.72;100.00;52735.81;5060654;28;19994;-70
2023/09/15 06:40:12;;;;;;;;;;;;;;;-140.72;100.00;52741.91;5065253;28;20299;-70
2023/09/15 06:42:37;;;;;;;;;;;;;;;-140.72;100.00;52723.66;5074267;28;20352;-70
2023/09/15 06:45:03;;;;;;;;;;;;;;;-140.72;100.00;52709.44;5065607;28;19920;-71
2023/09/15 06:47:29;;;;;;;;;;;;;;;-140.72;100.00;52776.41;5072387;28;19920;-71
2023/09/15 06:49:54;;;;;;;;;;;;;;;-140.72;100.00;52756.13;5076269;28;19924;-71
2023/09/15 06:52:21;;;;;;;;;;;;;;;-140.72;100.00;52780.47;5070231;28;20462;-71
2023/09/15 06:54:48;;;;;;;;;;;;;;;-140.72;100.00;52705.38;5069678;28;20290;-72
2023/09/15 06:57:13;;;;;;;;;;;;;;;-140.72;100.00;52723.66;5075852;28;19946;-74
2023/09/15 06:59:38;;;;;;;;;;;;;;;-140.72;100.00;52717.56;5075135;28;19923;-76
2023/09/15 07:02:03;;;;;;;;;;;;;;;-140.72;100.00;52727.72;5072636;28;19921;-72
2023/09/15 07:04:29;;;;;;;;;;;;;;;-140.72;100.00;52737.84;5068658;28;20294;-73
2023/09/15 07:06:54;;;;;;;;;;;;;;;-140.72;100.00;52687.13;5073929;28;19916;-72
2023/09/15 07:09:19;;;;;;;;;;;;;;;-140.72;100.00;52760.19;5071596;28;19970;-73
2023/09/15 07:11:44;;;;;;;;;;;;;;;-140.72;100.00;52727.72;5078397;28;20394;-74
2023/09/15 07:14:16;;;;;;;;;;;;;;;-140.72;100.00;52697.28;5067863;28;19920;-73
2023/09/15 07:16:45;;;;;;;;;;;;;;;-140.72;100.00;52721.63;5073996;28;19927;-72
2023/09/15 07:19:11;;;;;;;;;;;;;;;-140.72;100.00;52723.66;5073700;28;19924;-73
2023/09/15 07:21:40;;;;;;;;;;;;;;;-140.72;100.00;52735.81;5097083;28;19916;-76
2023/09/15 07:24:06;;;;;;;;;;;;;;;-140.72;100.00;52731.75;5070023;28;19942;-72
2023/09/15 07:26:31;;;;;;;;;;;;;;;-140.72;100.00;52750.03;5072897;28;20375;-75
2023/09/15 07:28:56;;;;;;;;;;;;;;;-140.72;100.00;52723.66;5067634;28;19916;-74
2023/09/15 07:31:21;;;;;;;;;;;;;;;-140.72;100.00;52719.59;5071346;28;19956;-72
2023/09/15 07:33:47;;;;;;;;;;;;;;;-140.72;100.00;52658.72;5062562;28;19971;-78
2023/09/15 07:36:12;;;;;;;;;;;;;;;-140.72;100.00;52725.69;5069224;28;19921;-72
2023/09/15 07:38:39;;;;;;;;;;;;;;;-140.72;100.00;52717.56;5069225;28;20053;-73
2023/09/15 07:41:05;;;;;;;;;;;;;;;-140.72;100.00;52670.88;5069598;28;19994;-73
2023/09/15 07:43:30;;;;;;;;;;;;;;;-140.72;100.00;52681.03;5061389;28;20041;-73
2023/09/15 07:45:55;;;;;;;;;;;;;;;-140.72;100.00;52672.91;5081468;28;19912;-73
2023/09/15 07:48:21;;;;;;;;;;;;;;;-140.72;100.00;52652.63;5084559;28;19917;-73
2023/09/15 07:50:46;;;;;;;;;;;;;;;-140.72;100.00;52666.84;5076069;28;19920;-72
2023/09/15 07:53:12;;;;;;;;;;;;;;;-140.72;100.00;52695.25;5062747;28;19921;-73
2023/09/15 07:55:37;;;;;;;;;;;;;;;-140.72;100.00;52662.78;5070806;28;19965;-73
2023/09/15 07:58:03;;;;;;;;;;;;;;;-140.72;100.00;52656.69;5072630;28;19920;-73
2023/09/15 08:00:29;;;;;;;;;;;;;;;-140.72;100.00;52668.84;5075228;28;20019;-74
2023/09/15 08:02:54;;;;;;;;;;;;;;;-140.72;100.00;52679.00;5065159;28;19931;-73
2023/09/15 08:05:20;;;;;;;;;;;;;;;-140.72;100.00;52691.19;5068252;28;19924;-74
2023/09/15 08:07:46;;;;;;;;;;;;;;;-140.72;100.00;52664.81;5063459;28;19939;-74
2023/09/15 08:10:12;;;;;;;;;;;;;;;-140.72;100.00;52660.75;5072828;28;19924;-73
2023/09/15 08:12:37;;;;;;;;;;;;;;;-140.72;100.00;52666.84;5069183;28;19971;-73
2023/09/15 08:15:06;;;;;;;;;;;;;;;-140.72;100.00;52628.28;5076908;28;19951;-74
2023/09/15 08:17:31;;;;;;;;;;;;;;;-140.72;100.00;52650.59;5090857;28;20015;-73
2023/09/15 08:19:57;;;;;;;;;;;;;;;-140.72;100.00;52634.38;5074854;28;20027;-73
2023/09/15 08:22:26;;;;;;;;;;;;;;;-140.72;100.00;52660.75;5071572;28;19927;-74
2023/09/15 08:24:52;;;;;;;;;;;;;;;-140.72;100.00;52658.72;5077697;28;19928;-73
2023/09/15 08:27:18;;;;;;;;;;;;;;;-140.72;100.00;52634.38;5068089;28;19924;-73
2023/09/15 08:29:43;;;;;;;;;;;;;;;-140.72;100.00;52642.47;5073010;28;19984;-73
2023/09/15 08:32:09;;;;;;;;;;;;;;;-140.72;100.00;52662.78;5065068;28;20019;-73
2023/09/15 08:34:34;;;;;;;;;;;;;;;-140.72;100.00;52638.41;5070722;28;19917;-73
2023/09/15 08:37:00;;;;;;;;;;;;;;;-140.72;100.00;52630.31;5075625;28;19947;-73
2023/09/15 08:39:26;;;;;;;;;;;;;;;-140.72;100.00;52616.09;5072108;28;19928;-72
2023/09/15 08:41:54;;;;;;;;;;;;;;;-140.72;100.00;52616.09;5070008;28;20302;-73
2023/09/15 08:44:20;;;;;;;;;;;;;;;-140.72;100.00;52597.84;5070231;28;19982;-73
2023/09/15 08:46:48;;;;;;;;;;;;;;;-140.72;100.00;52603.94;5062581;28;19921;-73
2023/09/15 08:49:14;;;;;;;;;;;;;;;-140.72;100.00;52563.34;5062026;28;20302;-73
2023/09/15 08:51:40;;;;;;;;;;;;;;;-140.72;100.00;52593.78;5069282;28;20386;-71
2023/09/15 08:54:05;;;;;;;;;;;;;;;-140.72;100.00;52536.97;5070208;28;20012;-72
2023/09/15 08:56:31;;;;;;;;;;;;;;;-140.72;100.00;52530.88;5077972;28;19924;-72
2023/09/15 08:58:57;;;;;;;;;;;;;;;-140.72;100.00;52500.44;5071340;28;20334;-72
2023/09/15 09:01:22;;;;;;;;;;;;;;;-140.72;100.00;52514.63;5070566;28;20413;-72
2023/09/15 09:03:48;;;;;;;;;;;;;;;-140.72;100.00;52488.25;5066914;28;19978;-73
2023/09/15 09:06:15;;;;;;;;;;;;;;;-140.72;100.00;52480.16;5079808;28;19952;-72
2023/09/15 09:08:41;;;;;;;;;;;;;;;-140.72;100.00;52443.63;5080713;28;19920;-73
2023/09/15 09:11:07;;;;;;;;;;;;;;;-140.72;100.00;52439.56;5061341;28;19917;-71
2023/09/15 09:13:33;;;;;;;;;;;;;;;-140.72;100.00;52453.75;5071716;28;20293;-73
2023/09/15 09:15:58;;;;;;;;;;;;;;;-140.72;100.00;52457.81;5069465;28;19916;-73
2023/09/15 09:18:23;;;;;;;;;;;;;;;-140.72;100.00;52449.72;5065634;28;19934;-74
2023/09/15 09:20:50;;;;;;;;;;;;;;;-140.72;100.00;52386.81;5065773;28;19971;-73
2023/09/15 09:23:19;;;;;;;;;;;;;;;-140.72;100.00;52398.97;5068385;28;19920;-73
2023/09/15 09:25:45;;;;;;;;;;;;;;;-140.72;100.00;52392.88;5074912;28;19920;-75
2023/09/15 09:28:10;;;;;;;;;;;;;;;-140.72;100.00;52378.69;5066694;28;19992;-75
2023/09/15 09:30:35;;;;;;;;;;;;;;;-140.72;100.00;52382.75;5072941;28;19921;-74
2023/09/15 09:33:03;;;;;;;;;;;;;;;-140.72;100.00;52342.16;5068655;28;19927;-73
2023/09/15 09:35:28;;;;;;;;;;;;;;;-140.72;0.00;52291.44;5070087;28;20012;-73
2023/09/15 09:37:54;;;;;;;;;;;;;;;-140.72;0.00;52305.63;5068606;28;20352;-73
2023/09/15 09:40:20;;;;;;;;;;;;;;;-140.72;0.00;52303.59;5065641;28;20019;-76
2023/09/15 09:42:47;;;;;;;;;;;;;;;-140.72;0.00;52338.09;5068954;28;19989;-73
2023/09/15 09:45:12;;;;;;;;;;;;;;;-140.72;0.00;52321.88;5074009;28;19921;-73
2023/09/15 09:47:37;;;;;;;;;;;;;;;-140.72;0.00;52297.53;5073953;28;19920;-73
2023/09/15 09:50:06;;;;;;;;;;;;;;;-140.72;0.00;52273.19;5064072;28;19917;-72
2023/09/15 09:52:33;;;;;;;;;;;;;;;-140.72;0.00;52303.59;5066532;28;19921;-72
2023/09/15 09:55:00;;;;;;;;;;;;;;;-140.72;0.00;52254.91;5074793;28;19924;-70
2023/09/15 09:57:26;;;;;;;;;;;;;;;-140.72;0.00;52289.41;5063607;28;20310;-73
2023/09/15 09:59:52;;;;;;;;;;;;;;;-140.72;0.00;52216.34;5068919;28;19917;-77
2023/09/15 10:02:18;;;;;;;;;;;;;;;-140.72;0.00;52210.28;5077855;28;20323;-77
2023/09/15 10:04:45;;;;;;;;;;;;;;;-140.72;0.00;52202.16;5076842;28;19921;-78
2023/09/15 10:07:10;;;;;;;;;;;;;;;-140.72;0.00;52210.28;5081254;28;19928;-77
2023/09/15 10:09:36;;;;;;;;;;;;;;;-140.72;0.00;52220.41;5076825;28;19979;-77
2023/09/15 10:12:01;;;;;;;;;;;;;;;-140.72;0.00;52228.53;5062602;28;19927;-75
2023/09/15 10:14:28;;;;;;;;;;;;;;;-140.72;0.00;52177.81;5072232;28;20272;-78
2023/09/15 10:16:54;;;;;;;;;;;;;;;-140.72;0.00;52185.94;5075218;28;19927;-76
2023/09/15 10:19:19;;;;;;;;;;;;;;;-140.72;0.00;52175.78;5070586;28;19920;-78
2023/09/15 10:21:45;;;;;;;;;;;;;;;-140.72;0.00;52129.13;5066971;28;20276;-76
2023/09/15 10:24:11;;;;;;;;;;;;;;;-140.72;0.00;52153.47;5075027;28;20616;-77
2023/09/15 10:26:41;;;;;;;;;;;;;;;-140.72;0.00;52135.19;5081944;28;19920;-77
2023/09/15 10:29:06;;;;;;;;;;;;;;;-140.72;0.00;52131.16;5071760;28;19917;-77
2023/09/15 10:31:32;;;;;;;;;;;;;;;-140.72;0.00;52114.91;5079882;28;20401;-79
2023/09/15 10:34:04;;;;;;;;;;;;;;;-140.72;0.00;52100.72;5078287;28;19920;-78
2023/09/15 10:36:30;;;;;;;;;;;;;;;-140.72;0.00;52090.56;5068615;28;19928;-77
2023/09/15 10:38:57;;;;;;;;;;;;;;;-140.72;0.00;52074.34;5081962;28;20442;-78
2023/09/15 10:41:25;;;;;;;;;;;;;;;-140.72;0.00;52072.31;5070496;28;20276;-79
2023/09/15 10:43:51;;;;;;;;;;;;;;;-140.72;0.00;52025.63;5083170;28;20028;-79
2023/09/15 10:46:16;;;;;;;;;;;;;;;-140.72;0.00;52015.50;5079327;28;19960;-79
2023/09/15 10:48:44;;;;;;;;;;;;;;;-140.72;0.00;52007.38;5072487;28;19971;-79
2023/09/15 10:51:10;;;;;;;;;;;;;;;-140.72;0.00;51962.75;5078382;28;20342;-80
2023/09/15 10:53:49;;;;;;;;;;;;;;;-140.72;0.00;51962.75;5077097;28;19967;-80
2023/09/15 10:56:15;;;;;;;;;;;;;;;-140.72;0.00;51958.69;5082921;28;19921;-81
2023/09/15 10:58:41;;;;;;;;;;;;;;;-140.72;0.00;51964.78;5058609;28;19928;-78
2023/09/15 11:01:08;;;;;;;;;;;;;;;-140.72;0.00;51907.97;5076382;28;19996;-78
2023/09/15 11:03:34;;;;;;;;;;;;;;;-140.72;0.00;51924.19;5071847;28;19931;-78
2023/09/15 11:06:01;;;;;;;;;;;;;;;-140.72;0.00;51863.31;5062205;28;19924;-78
2023/09/15 11:08:26;;;;;;;;;;;;;;;-140.72;0.00;51875.50;5075405;28;19924;-81
2023/09/15 11:10:59;;;;;;;;;;;;;;;-140.72;0.00;51849.13;5075381;28;20297;-79
2023/09/15 11:13:24;;;;;;;;;;;;;;;-140.72;0.00;51855.22;5084970;28;19955;-80
2023/09/15 11:15:49;;;;;;;;;;;;;;;-140.72;0.00;51865.34;5078395;28;19925;-80
2023/09/15 11:18:14;;;;;;;;;;;;;;;-140.72;0.00;51778.13;5086215;28;20393;-79
2023/09/15 11:20:40;;;;;;;;;;;;;;;-140.72;0.00;51826.81;5081104;28;19927;-77
2023/09/15 11:23:05;;;;;;;;;;;;;;;-140.72;0.00;51881.59;5062254;28;20007;-74
2023/09/15 11:25:32;;;;;;;;;;;;;;;-140.72;0.00;51851.16;5070451;28;20440;-76
2023/09/15 11:28:00;;;;;;;;;;;;;;;-140.72;0.00;51828.84;5075978;28;19920;-77
2023/09/15 11:30:28;;;;;;;;;;;;;;;-140.72;0.00;51818.69;5072023;28;20291;-77
2023/09/15 11:32:54;;;;;;;;;;;;;;;-140.72;0.00;51804.50;5068845;28;19942;-77
2023/09/15 11:35:20;;;;;;;;;;;;;;;-140.72;0.00;51770.00;5056137;28;20328;-77
2023/09/15 11:37:46;;;;;;;;;;;;;;;-140.72;0.00;51696.97;5076056;28;19927;-77
2023/09/15 11:40:21;;;;;;;;;;;;;;;-140.72;0.00;51711.16;5078060;28;20267;-77
2023/09/15 11:42:59;;;;;;;;;;;;;;;-140.72;0.00;51765.94;5072161;28;19931;-77
2023/09/15 11:45:26;;;;;;;;;;;;;;;-140.72;0.00;51703.06;5069125;28;19917;-77
2023/09/15 11:47:51;;;;;;;;;;;;;;;-140.72;0.00;51686.81;5069645;28;19920;-77
2023/09/15 11:50:17;;;;;;;;;;;;;;;-140.72;0.00;51749.72;5077933;28;20069;-77
2023/09/15 11:52:43;;;;;;;;;;;;;;;-140.72;0.00;51770.00;5076320;28;20413;-76
2023/09/15 11:55:19;;;;;;;;;;;;;;;-140.72;0.00;51855.22;5098205;28;19916;-78
2023/09/15 11:57:45;;;;;;;;;;;;;;;-140.72;0.00;51818.69;5081793;28;19991;-77
2023/09/15 12:00:12;;;;;;;;;;;;;;;-140.72;0.00;51806.53;5073579;28;19917;-76
2023/09/15 12:02:38;;;;;;;;;;;;;;;-140.72;0.00;51668.56;5073079;28;19951;-77
2023/09/15 12:05:03;;;;;;;;;;;;;;;-140.72;0.00;51628.00;5074445;28;20018;-76
2023/09/15 12:07:29;;;;;;;;;;;;;;;-140.72;0.00;51676.69;5070330;28;20379;-77
2023/09/15 12:09:54;;;;;;;;;;;;;;;-140.72;0.00;51729.44;5069778;28;20012;-78
2023/09/15 12:12:20;;;;;;;;;;;;;;;-140.72;0.00;51757.81;5064107;28;19974;-76
2023/09/15 12:14:46;;;;;;;;;;;;;;;-140.72;0.00;51656.38;5060841;28;20015;-77
2023/09/15 12:17:12;;;;;;;;;;;;;;;-140.72;0.00;51822.75;5063706;28;19916;-76
2023/09/15 12:19:37;;;;;;;;;;;;;;;-140.72;0.00;51830.88;5067727;28;19917;-72
2023/09/15 12:22:02;;;;;;;;;;;;;;;-140.72;0.00;51812.59;5067652;28;19925;-71